sensor_id;sensor_type;location;lat;lon;timestamp;P1;durP1;ratioP1;P2;durP2;ratioP2
12816;SDS011;6473;51.552;6.716;2022-11-21T00:00:28;32.03;;;18.93;;
12816;SDS011;6473;51.552;6.716;2022-11-21T00:02:57;30.27;;;18.97;;
12816;SDS011;6473;51.552;6.716;2022-11-21T00:05:25;31.47;;;18.90;;
12816;SDS011;6473;51.552;6.716;2022-11-21T00:07:54;29.87;;;17.90;;
12816;SDS011;6473;51.552;6.716;2022-11-21T00:10:21;32.83;;;19.27;;
12816;SDS011;6473;51.552;6.716;2022-11-21T00:12:52;31.17;;;20.00;;
12816;SDS011;6473;51.552;6.716;2022-11-21T00:15:19;32.13;;;19.40;;
12816;SDS011;6473;51.552;6.716;2022-11-21T00:17:46;29.30;;;18.13;;
12816;SDS011;6473;51.552;6.716;2022-11-21T00:20:13;29.50;;;18.57;;
12816;SDS011;6473;51.552;6.716;2022-11-21T00:22:40;28.37;;;17.43;;
12816;SDS011;6473;51.552;6.716;2022-11-21T00:25:09;26.97;;;17.63;;
12816;SDS011;6473;51.552;6.716;2022-11-21T00:27:36;26.83;;;17.73;;
12816;SDS011;6473;51.552;6.716;2022-11-21T00:30:04;26.20;;;17.13;;
12816;SDS011;6473;51.552;6.716;2022-11-21T00:32:32;28.07;;;16.77;;
12816;SDS011;6473;51.552;6.716;2022-11-21T00:34:59;26.93;;;17.73;;
12816;SDS011;6473;51.552;6.716;2022-11-21T00:37:26;27.53;;;16.93;;
12816;SDS011;6473;51.552;6.716;2022-11-21T00:39:53;27.63;;;17.90;;
12816;SDS011;6473;51.552;6.716;2022-11-21T00:42:22;26.87;;;17.07;;
12816;SDS011;6473;51.552;6.716;2022-11-21T00:44:48;26.80;;;17.50;;
12816;SDS011;6473;51.552;6.716;2022-11-21T00:47:16;27.67;;;17.67;;
12816;SDS011;6473;51.552;6.716;2022-11-21T00:49:43;25.70;;;16.93;;
12816;SDS011;6473;51.552;6.716;2022-11-21T00:52:10;26.60;;;16.93;;
12816;SDS011;6473;51.552;6.716;2022-11-21T00:54:37;25.10;;;17.37;;
12816;SDS011;6473;51.552;6.716;2022-11-21T00:57:04;26.17;;;16.70;;
12816;SDS011;6473;51.552;6.716;2022-11-21T00:59:32;26.87;;;16.80;;
12816;SDS011;6473;51.552;6.716;2022-11-21T01:01:59;26.87;;;16.37;;
12816;SDS011;6473;51.552;6.716;2022-11-21T01:04:29;26.93;;;16.33;;
12816;SDS011;6473;51.552;6.716;2022-11-21T01:06:56;26.50;;;15.80;;
12816;SDS011;6473;51.552;6.716;2022-11-21T01:09:24;24.83;;;15.07;;
12816;SDS011;6473;51.552;6.716;2022-11-21T01:11:52;24.13;;;15.53;;
12816;SDS011;6473;51.552;6.716;2022-11-21T01:14:19;23.80;;;14.30;;
12816;SDS011;6473;51.552;6.716;2022-11-21T01:16:48;21.87;;;14.57;;
12816;SDS011;6473;51.552;6.716;2022-11-21T01:19:15;21.07;;;14.57;;
12816;SDS011;6473;51.552;6.716;2022-11-21T01:21:42;21.60;;;14.23;;
12816;SDS011;6473;51.552;6.716;2022-11-21T01:24:09;21.93;;;14.87;;
12816;SDS011;6473;51.552;6.716;2022-11-21T01:26:37;23.73;;;15.00;;
12816;SDS011;6473;51.552;6.716;2022-11-21T01:29:04;22.63;;;14.97;;
12816;SDS011;6473;51.552;6.716;2022-11-21T01:31:33;21.30;;;14.47;;
12816;SDS011;6473;51.552;6.716;2022-11-21T01:34:01;24.80;;;15.70;;
12816;SDS011;6473;51.552;6.716;2022-11-21T01:36:29;23.30;;;15.53;;
12816;SDS011;6473;51.552;6.716;2022-11-21T01:38:58;22.40;;;15.13;;
12816;SDS011;6473;51.552;6.716;2022-11-21T01:41:27;22.07;;;13.37;;
12816;SDS011;6473;51.552;6.716;2022-11-21T01:43:55;23.53;;;14.83;;
12816;SDS011;6473;51.552;6.716;2022-11-21T01:46:23;22.50;;;15.37;;
12816;SDS011;6473;51.552;6.716;2022-11-21T01:48:51;19.80;;;14.20;;
12816;SDS011;6473;51.552;6.716;2022-11-21T01:51:24;22.40;;;14.20;;
12816;SDS011;6473;51.552;6.716;2022-11-21T01:53:56;22.03;;;14.57;;
12816;SDS011;6473;51.552;6.716;2022-11-21T01:56:26;21.50;;;14.07;;
12816;SDS011;6473;51.552;6.716;2022-11-21T01:58:55;23.47;;;15.57;;
12816;SDS011;6473;51.552;6.716;2022-11-21T02:01:29;22.17;;;14.60;;
12816;SDS011;6473;51.552;6.716;2022-11-21T02:04:02;21.83;;;14.93;;
12816;SDS011;6473;51.552;6.716;2022-11-21T02:06:32;22.27;;;14.83;;
12816;SDS011;6473;51.552;6.716;2022-11-21T02:09:02;22.83;;;15.07;;
12816;SDS011;6473;51.552;6.716;2022-11-21T02:11:31;21.00;;;13.80;;
12816;SDS011;6473;51.552;6.716;2022-11-21T02:14:01;21.27;;;14.87;;
12816;SDS011;6473;51.552;6.716;2022-11-21T02:16:28;22.63;;;15.07;;
12816;SDS011;6473;51.552;6.716;2022-11-21T02:18:56;20.67;;;14.07;;
12816;SDS011;6473;51.552;6.716;2022-11-21T02:21:26;22.60;;;14.77;;
12816;SDS011;6473;51.552;6.716;2022-11-21T02:24:03;22.40;;;14.97;;
12816;SDS011;6473;51.552;6.716;2022-11-21T02:26:40;25.00;;;16.13;;
12816;SDS011;6473;51.552;6.716;2022-11-21T02:29:08;21.87;;;14.90;;
12816;SDS011;6473;51.552;6.716;2022-11-21T02:31:35;21.90;;;14.83;;
12816;SDS011;6473;51.552;6.716;2022-11-21T02:34:02;24.60;;;15.43;;
12816;SDS011;6473;51.552;6.716;2022-11-21T02:36:32;22.90;;;14.80;;
12816;SDS011;6473;51.552;6.716;2022-11-21T02:39:04;25.53;;;15.10;;
12816;SDS011;6473;51.552;6.716;2022-11-21T02:41:33;21.53;;;15.57;;
12816;SDS011;6473;51.552;6.716;2022-11-21T02:44:04;24.47;;;15.00;;
12816;SDS011;6473;51.552;6.716;2022-11-21T02:46:34;22.27;;;14.77;;
12816;SDS011;6473;51.552;6.716;2022-11-21T02:49:03;21.20;;;14.87;;
12816;SDS011;6473;51.552;6.716;2022-11-21T02:51:32;23.07;;;15.17;;
12816;SDS011;6473;51.552;6.716;2022-11-21T02:53:59;22.83;;;15.60;;
12816;SDS011;6473;51.552;6.716;2022-11-21T02:56:26;22.77;;;15.77;;
12816;SDS011;6473;51.552;6.716;2022-11-21T02:58:53;24.13;;;15.00;;
12816;SDS011;6473;51.552;6.716;2022-11-21T03:01:21;23.27;;;14.60;;
12816;SDS011;6473;51.552;6.716;2022-11-21T03:03:49;22.87;;;14.70;;
12816;SDS011;6473;51.552;6.716;2022-11-21T03:06:16;22.77;;;15.03;;
12816;SDS011;6473;51.552;6.716;2022-11-21T03:08:58;22.80;;;14.97;;
12816;SDS011;6473;51.552;6.716;2022-11-21T03:11:25;22.20;;;15.53;;
12816;SDS011;6473;51.552;6.716;2022-11-21T03:13:52;22.17;;;14.73;;
12816;SDS011;6473;51.552;6.716;2022-11-21T03:16:19;21.37;;;14.83;;
12816;SDS011;6473;51.552;6.716;2022-11-21T03:18:47;23.30;;;15.30;;
12816;SDS011;6473;51.552;6.716;2022-11-21T03:21:14;21.37;;;14.97;;
12816;SDS011;6473;51.552;6.716;2022-11-21T03:23:42;20.03;;;13.80;;
12816;SDS011;6473;51.552;6.716;2022-11-21T03:26:09;19.67;;;14.00;;
12816;SDS011;6473;51.552;6.716;2022-11-21T03:28:36;21.67;;;14.40;;
12816;SDS011;6473;51.552;6.716;2022-11-21T03:31:03;19.87;;;14.67;;
12816;SDS011;6473;51.552;6.716;2022-11-21T03:33:30;20.63;;;13.57;;
12816;SDS011;6473;51.552;6.716;2022-11-21T03:35:59;21.10;;;14.10;;
12816;SDS011;6473;51.552;6.716;2022-11-21T03:38:25;22.23;;;14.70;;
12816;SDS011;6473;51.552;6.716;2022-11-21T03:40:53;20.00;;;14.33;;
12816;SDS011;6473;51.552;6.716;2022-11-21T03:43:20;20.17;;;14.27;;
12816;SDS011;6473;51.552;6.716;2022-11-21T03:45:47;20.17;;;14.00;;
12816;SDS011;6473;51.552;6.716;2022-11-21T03:48:14;19.77;;;13.77;;
12816;SDS011;6473;51.552;6.716;2022-11-21T03:50:41;20.33;;;14.50;;
12816;SDS011;6473;51.552;6.716;2022-11-21T03:53:10;19.77;;;14.70;;
12816;SDS011;6473;51.552;6.716;2022-11-21T03:55:37;19.80;;;14.10;;
12816;SDS011;6473;51.552;6.716;2022-11-21T03:58:04;20.23;;;14.17;;
12816;SDS011;6473;51.552;6.716;2022-11-21T04:00:31;20.53;;;14.43;;
12816;SDS011;6473;51.552;6.716;2022-11-21T04:02:59;20.93;;;15.13;;
12816;SDS011;6473;51.552;6.716;2022-11-21T04:05:26;20.70;;;14.57;;
12816;SDS011;6473;51.552;6.716;2022-11-21T04:07:53;20.90;;;14.57;;
12816;SDS011;6473;51.552;6.716;2022-11-21T04:10:24;19.80;;;14.17;;
12816;SDS011;6473;51.552;6.716;2022-11-21T04:12:51;21.53;;;14.83;;
12816;SDS011;6473;51.552;6.716;2022-11-21T04:15:18;21.03;;;14.87;;
12816;SDS011;6473;51.552;6.716;2022-11-21T04:17:45;21.70;;;14.37;;
12816;SDS011;6473;51.552;6.716;2022-11-21T04:20:12;21.70;;;15.57;;
12816;SDS011;6473;51.552;6.716;2022-11-21T04:22:39;20.20;;;14.17;;
12816;SDS011;6473;51.552;6.716;2022-11-21T04:25:07;19.03;;;14.63;;
12816;SDS011;6473;51.552;6.716;2022-11-21T04:27:35;21.33;;;14.93;;
12816;SDS011;6473;51.552;6.716;2022-11-21T04:30:02;22.70;;;14.87;;
12816;SDS011;6473;51.552;6.716;2022-11-21T04:32:31;20.63;;;14.60;;
12816;SDS011;6473;51.552;6.716;2022-11-21T04:34:58;26.07;;;16.07;;
12816;SDS011;6473;51.552;6.716;2022-11-21T04:37:25;25.43;;;17.23;;
12816;SDS011;6473;51.552;6.716;2022-11-21T04:39:52;28.17;;;17.70;;
12816;SDS011;6473;51.552;6.716;2022-11-21T04:42:19;26.73;;;17.03;;
12816;SDS011;6473;51.552;6.716;2022-11-21T04:44:47;33.93;;;19.17;;
12816;SDS011;6473;51.552;6.716;2022-11-21T04:47:14;37.10;;;18.20;;
12816;SDS011;6473;51.552;6.716;2022-11-21T04:49:41;37.60;;;18.80;;
12816;SDS011;6473;51.552;6.716;2022-11-21T04:52:08;41.23;;;18.47;;
12816;SDS011;6473;51.552;6.716;2022-11-21T04:54:36;41.80;;;18.47;;
12816;SDS011;6473;51.552;6.716;2022-11-21T04:57:03;45.27;;;19.60;;
12816;SDS011;6473;51.552;6.716;2022-11-21T04:59:31;38.63;;;18.33;;
12816;SDS011;6473;51.552;6.716;2022-11-21T05:02:00;40.73;;;19.63;;
12816;SDS011;6473;51.552;6.716;2022-11-21T05:04:28;36.00;;;18.00;;
12816;SDS011;6473;51.552;6.716;2022-11-21T05:06:55;35.93;;;16.27;;
12816;SDS011;6473;51.552;6.716;2022-11-21T05:09:22;37.60;;;16.53;;
12816;SDS011;6473;51.552;6.716;2022-11-21T05:11:50;37.63;;;15.90;;
12816;SDS011;6473;51.552;6.716;2022-11-21T05:14:35;36.60;;;16.30;;
12816;SDS011;6473;51.552;6.716;2022-11-21T05:17:03;31.37;;;15.63;;
12816;SDS011;6473;51.552;6.716;2022-11-21T05:19:31;36.90;;;15.37;;
12816;SDS011;6473;51.552;6.716;2022-11-21T05:21:58;34.17;;;15.53;;
12816;SDS011;6473;51.552;6.716;2022-11-21T05:24:26;35.63;;;16.33;;
12816;SDS011;6473;51.552;6.716;2022-11-21T05:26:53;35.23;;;16.70;;
12816;SDS011;6473;51.552;6.716;2022-11-21T05:29:23;36.47;;;16.50;;
12816;SDS011;6473;51.552;6.716;2022-11-21T05:31:50;34.60;;;16.33;;
12816;SDS011;6473;51.552;6.716;2022-11-21T05:34:19;37.97;;;16.97;;
12816;SDS011;6473;51.552;6.716;2022-11-21T05:36:47;36.90;;;16.90;;
12816;SDS011;6473;51.552;6.716;2022-11-21T05:39:15;38.63;;;15.60;;
12816;SDS011;6473;51.552;6.716;2022-11-21T05:41:42;34.27;;;15.80;;
12816;SDS011;6473;51.552;6.716;2022-11-21T05:44:10;31.10;;;15.10;;
12816;SDS011;6473;51.552;6.716;2022-11-21T05:46:36;30.23;;;14.97;;
12816;SDS011;6473;51.552;6.716;2022-11-21T05:49:04;33.03;;;14.07;;
12816;SDS011;6473;51.552;6.716;2022-11-21T05:51:33;30.67;;;15.70;;
12816;SDS011;6473;51.552;6.716;2022-11-21T05:54:01;35.67;;;15.00;;
12816;SDS011;6473;51.552;6.716;2022-11-21T05:56:28;28.67;;;15.23;;
12816;SDS011;6473;51.552;6.716;2022-11-21T05:58:56;36.83;;;17.53;;
12816;SDS011;6473;51.552;6.716;2022-11-21T06:01:24;33.47;;;15.53;;
12816;SDS011;6473;51.552;6.716;2022-11-21T06:04:09;34.83;;;16.23;;
12816;SDS011;6473;51.552;6.716;2022-11-21T06:06:38;35.13;;;16.73;;
12816;SDS011;6473;51.552;6.716;2022-11-21T06:09:06;33.47;;;17.37;;
12816;SDS011;6473;51.552;6.716;2022-11-21T06:11:33;31.50;;;16.27;;
12816;SDS011;6473;51.552;6.716;2022-11-21T06:14:01;29.93;;;15.73;;
12816;SDS011;6473;51.552;6.716;2022-11-21T06:16:29;32.73;;;16.20;;
12816;SDS011;6473;51.552;6.716;2022-11-21T06:18:56;34.37;;;16.33;;
12816;SDS011;6473;51.552;6.716;2022-11-21T06:21:24;31.20;;;16.00;;
12816;SDS011;6473;51.552;6.716;2022-11-21T06:23:55;30.30;;;15.37;;
12816;SDS011;6473;51.552;6.716;2022-11-21T06:26:24;33.37;;;16.13;;
12816;SDS011;6473;51.552;6.716;2022-11-21T06:28:53;34.33;;;16.60;;
12816;SDS011;6473;51.552;6.716;2022-11-21T06:31:23;33.97;;;15.43;;
12816;SDS011;6473;51.552;6.716;2022-11-21T06:33:52;31.07;;;15.40;;
12816;SDS011;6473;51.552;6.716;2022-11-21T06:36:20;29.53;;;14.03;;
12816;SDS011;6473;51.552;6.716;2022-11-21T06:38:48;33.63;;;15.50;;
12816;SDS011;6473;51.552;6.716;2022-11-21T06:41:18;29.60;;;15.27;;
12816;SDS011;6473;51.552;6.716;2022-11-21T06:43:48;34.47;;;14.57;;
12816;SDS011;6473;51.552;6.716;2022-11-21T06:46:15;32.20;;;15.13;;
12816;SDS011;6473;51.552;6.716;2022-11-21T06:48:43;36.17;;;15.40;;
12816;SDS011;6473;51.552;6.716;2022-11-21T06:51:12;41.40;;;15.73;;
12816;SDS011;6473;51.552;6.716;2022-11-21T06:53:43;37.10;;;15.63;;
12816;SDS011;6473;51.552;6.716;2022-11-21T06:56:10;39.20;;;15.23;;
12816;SDS011;6473;51.552;6.716;2022-11-21T06:58:39;35.57;;;14.73;;
12816;SDS011;6473;51.552;6.716;2022-11-21T07:01:08;38.53;;;16.80;;
12816;SDS011;6473;51.552;6.716;2022-11-21T07:03:36;43.30;;;16.47;;
12816;SDS011;6473;51.552;6.716;2022-11-21T07:06:04;38.40;;;16.03;;
12816;SDS011;6473;51.552;6.716;2022-11-21T07:08:33;41.77;;;17.13;;
12816;SDS011;6473;51.552;6.716;2022-11-21T07:11:02;38.40;;;17.90;;
12816;SDS011;6473;51.552;6.716;2022-11-21T07:13:31;53.07;;;19.00;;
12816;SDS011;6473;51.552;6.716;2022-11-21T07:16:01;51.47;;;19.20;;
12816;SDS011;6473;51.552;6.716;2022-11-21T07:18:30;54.27;;;21.60;;
12816;SDS011;6473;51.552;6.716;2022-11-21T07:21:03;54.57;;;20.50;;
12816;SDS011;6473;51.552;6.716;2022-11-21T07:23:32;53.83;;;19.33;;
12816;SDS011;6473;51.552;6.716;2022-11-21T07:26:00;62.70;;;23.87;;
12816;SDS011;6473;51.552;6.716;2022-11-21T07:28:30;57.40;;;21.13;;
12816;SDS011;6473;51.552;6.716;2022-11-21T07:31:02;59.97;;;22.57;;
12816;SDS011;6473;51.552;6.716;2022-11-21T07:33:30;56.17;;;22.23;;
12816;SDS011;6473;51.552;6.716;2022-11-21T07:35:58;56.07;;;21.30;;
12816;SDS011;6473;51.552;6.716;2022-11-21T07:38:26;54.50;;;21.83;;
12816;SDS011;6473;51.552;6.716;2022-11-21T07:43:20;64.03;;;22.67;;
12816;SDS011;6473;51.552;6.716;2022-11-21T07:45:48;58.60;;;22.47;;
12816;SDS011;6473;51.552;6.716;2022-11-21T07:48:17;60.80;;;23.73;;
12816;SDS011;6473;51.552;6.716;2022-11-21T07:50:44;50.37;;;23.70;;
12816;SDS011;6473;51.552;6.716;2022-11-21T07:53:12;62.30;;;22.47;;
12816;SDS011;6473;51.552;6.716;2022-11-21T07:55:40;68.00;;;24.73;;
12816;SDS011;6473;51.552;6.716;2022-11-21T07:58:08;58.00;;;22.57;;
12816;SDS011;6473;51.552;6.716;2022-11-21T08:00:37;63.00;;;23.70;;
12816;SDS011;6473;51.552;6.716;2022-11-21T08:03:06;61.77;;;24.43;;
12816;SDS011;6473;51.552;6.716;2022-11-21T08:05:35;58.43;;;23.97;;
12816;SDS011;6473;51.552;6.716;2022-11-21T08:08:04;59.77;;;23.23;;
12816;SDS011;6473;51.552;6.716;2022-11-21T08:10:31;53.43;;;23.03;;
12816;SDS011;6473;51.552;6.716;2022-11-21T08:12:59;51.53;;;23.27;;
12816;SDS011;6473;51.552;6.716;2022-11-21T08:15:26;51.33;;;23.17;;
12816;SDS011;6473;51.552;6.716;2022-11-21T08:17:53;46.43;;;22.83;;
12816;SDS011;6473;51.552;6.716;2022-11-21T08:20:20;54.10;;;22.37;;
12816;SDS011;6473;51.552;6.716;2022-11-21T08:22:49;47.40;;;21.53;;
12816;SDS011;6473;51.552;6.716;2022-11-21T08:25:16;49.57;;;20.60;;
12816;SDS011;6473;51.552;6.716;2022-11-21T08:27:43;45.03;;;20.97;;
12816;SDS011;6473;51.552;6.716;2022-11-21T08:30:10;44.50;;;21.83;;
12816;SDS011;6473;51.552;6.716;2022-11-21T08:32:38;43.97;;;20.53;;
12816;SDS011;6473;51.552;6.716;2022-11-21T08:35:06;41.50;;;20.73;;
12816;SDS011;6473;51.552;6.716;2022-11-21T08:37:33;46.03;;;21.43;;
12816;SDS011;6473;51.552;6.716;2022-11-21T08:40:02;46.07;;;21.90;;
12816;SDS011;6473;51.552;6.716;2022-11-21T08:42:29;51.57;;;22.00;;
12816;SDS011;6473;51.552;6.716;2022-11-21T08:44:56;48.80;;;21.47;;
12816;SDS011;6473;51.552;6.716;2022-11-21T08:47:23;50.93;;;21.07;;
12816;SDS011;6473;51.552;6.716;2022-11-21T08:49:51;49.27;;;21.30;;
12816;SDS011;6473;51.552;6.716;2022-11-21T08:52:18;57.40;;;22.97;;
12816;SDS011;6473;51.552;6.716;2022-11-21T08:54:46;53.60;;;21.97;;
12816;SDS011;6473;51.552;6.716;2022-11-21T08:57:15;54.13;;;21.80;;
12816;SDS011;6473;51.552;6.716;2022-11-21T08:59:42;56.80;;;23.63;;
12816;SDS011;6473;51.552;6.716;2022-11-21T09:02:09;55.50;;;22.67;;
12816;SDS011;6473;51.552;6.716;2022-11-21T09:04:36;59.43;;;23.03;;
12816;SDS011;6473;51.552;6.716;2022-11-21T09:07:03;59.93;;;23.80;;
12816;SDS011;6473;51.552;6.716;2022-11-21T09:09:31;57.67;;;25.00;;
12816;SDS011;6473;51.552;6.716;2022-11-21T09:11:59;66.77;;;26.30;;
12816;SDS011;6473;51.552;6.716;2022-11-21T09:14:28;65.40;;;23.17;;
12816;SDS011;6473;51.552;6.716;2022-11-21T09:17:12;67.77;;;23.90;;
12816;SDS011;6473;51.552;6.716;2022-11-21T09:19:57;72.13;;;26.17;;
12816;SDS011;6473;51.552;6.716;2022-11-21T09:22:25;67.63;;;25.77;;
12816;SDS011;6473;51.552;6.716;2022-11-21T09:24:52;67.77;;;25.27;;
12816;SDS011;6473;51.552;6.716;2022-11-21T09:27:19;68.57;;;26.17;;
12816;SDS011;6473;51.552;6.716;2022-11-21T09:29:48;68.07;;;25.27;;
12816;SDS011;6473;51.552;6.716;2022-11-21T09:32:15;70.13;;;25.47;;
12816;SDS011;6473;51.552;6.716;2022-11-21T09:34:42;68.30;;;25.00;;
12816;SDS011;6473;51.552;6.716;2022-11-21T09:37:09;63.43;;;25.73;;
12816;SDS011;6473;51.552;6.716;2022-11-21T09:39:37;72.53;;;27.10;;
12816;SDS011;6473;51.552;6.716;2022-11-21T09:42:09;68.70;;;27.93;;
12816;SDS011;6473;51.552;6.716;2022-11-21T09:44:56;74.17;;;28.30;;
12816;SDS011;6473;51.552;6.716;2022-11-21T09:47:30;80.20;;;27.63;;
12816;SDS011;6473;51.552;6.716;2022-11-21T09:50:00;76.23;;;27.97;;
12816;SDS011;6473;51.552;6.716;2022-11-21T09:52:31;69.27;;;26.97;;
12816;SDS011;6473;51.552;6.716;2022-11-21T09:55:04;72.33;;;27.93;;
12816;SDS011;6473;51.552;6.716;2022-11-21T09:57:33;75.47;;;28.57;;
12816;SDS011;6473;51.552;6.716;2022-11-21T10:00:08;65.53;;;26.43;;
12816;SDS011;6473;51.552;6.716;2022-11-21T10:02:39;68.47;;;27.77;;
12816;SDS011;6473;51.552;6.716;2022-11-21T10:05:10;71.70;;;27.67;;
12816;SDS011;6473;51.552;6.716;2022-11-21T10:07:38;66.03;;;26.57;;
12816;SDS011;6473;51.552;6.716;2022-11-21T10:12:52;63.00;;;25.17;;
12816;SDS011;6473;51.552;6.716;2022-11-21T10:15:35;59.70;;;25.10;;
12816;SDS011;6473;51.552;6.716;2022-11-21T10:18:30;55.47;;;24.70;;
12816;SDS011;6473;51.552;6.716;2022-11-21T10:21:25;60.33;;;24.97;;
12816;SDS011;6473;51.552;6.716;2022-11-21T10:24:20;49.67;;;23.40;;
12816;SDS011;6473;51.552;6.716;2022-11-21T10:26:55;52.47;;;23.17;;
12816;SDS011;6473;51.552;6.716;2022-11-21T10:29:27;47.80;;;23.13;;
12816;SDS011;6473;51.552;6.716;2022-11-21T10:32:02;49.37;;;22.00;;
12816;SDS011;6473;51.552;6.716;2022-11-21T10:34:36;55.97;;;23.20;;
12816;SDS011;6473;51.552;6.716;2022-11-21T10:37:07;49.30;;;21.23;;
12816;SDS011;6473;51.552;6.716;2022-11-21T10:39:40;34.43;;;19.27;;
12816;SDS011;6473;51.552;6.716;2022-11-21T10:42:11;27.40;;;15.73;;
12816;SDS011;6473;51.552;6.716;2022-11-21T10:44:48;29.43;;;16.40;;
12816;SDS011;6473;51.552;6.716;2022-11-21T10:47:34;27.83;;;15.80;;
12816;SDS011;6473;51.552;6.716;2022-11-21T10:50:04;28.63;;;14.33;;
12816;SDS011;6473;51.552;6.716;2022-11-21T10:52:44;39.57;;;19.47;;
12816;SDS011;6473;51.552;6.716;2022-11-21T10:55:15;36.00;;;18.80;;
12816;SDS011;6473;51.552;6.716;2022-11-21T10:57:43;35.47;;;19.47;;
12816;SDS011;6473;51.552;6.716;2022-11-21T11:00:14;39.67;;;18.40;;
12816;SDS011;6473;51.552;6.716;2022-11-21T11:05:52;31.80;;;18.52;;
12816;SDS011;6473;51.552;6.716;2022-11-21T11:08:21;39.03;;;18.97;;
12816;SDS011;6473;51.552;6.716;2022-11-21T11:13:49;34.20;;;19.58;;
12816;SDS011;6473;51.552;6.716;2022-11-21T11:16:21;38.13;;;19.07;;
12816;SDS011;6473;51.552;6.716;2022-11-21T11:30:13;13.53;;;9.40;;
12816;SDS011;6473;51.552;6.716;2022-11-21T11:32:41;12.17;;;9.30;;
12816;SDS011;6473;51.552;6.716;2022-11-21T11:35:15;15.40;;;9.43;;
12816;SDS011;6473;51.552;6.716;2022-11-21T11:37:48;13.83;;;9.63;;
12816;SDS011;6473;51.552;6.716;2022-11-21T11:40:24;13.07;;;8.77;;
12816;SDS011;6473;51.552;6.716;2022-11-21T11:42:57;13.35;;;8.30;;
12816;SDS011;6473;51.552;6.716;2022-11-21T11:46:10;13.63;;;9.37;;
12816;SDS011;6473;51.552;6.716;2022-11-21T11:49:04;10.67;;;8.17;;
12816;SDS011;6473;51.552;6.716;2022-11-21T11:51:37;12.13;;;8.70;;
12816;SDS011;6473;51.552;6.716;2022-11-21T11:54:10;11.30;;;8.10;;
12816;SDS011;6473;51.552;6.716;2022-11-21T11:56:41;12.38;;;8.38;;
12816;SDS011;6473;51.552;6.716;2022-11-21T11:59:12;10.73;;;8.23;;
12816;SDS011;6473;51.552;6.716;2022-11-21T12:01:46;10.45;;;7.50;;
12816;SDS011;6473;51.552;6.716;2022-11-21T12:04:18;11.20;;;7.53;;
12816;SDS011;6473;51.552;6.716;2022-11-21T12:06:49;8.98;;;7.45;;
12816;SDS011;6473;51.552;6.716;2022-11-21T12:09:22;9.88;;;6.50;;
12816;SDS011;6473;51.552;6.716;2022-11-21T12:11:55;10.70;;;6.85;;
12816;SDS011;6473;51.552;6.716;2022-11-21T12:14:43;9.02;;;6.43;;
12816;SDS011;6473;51.552;6.716;2022-11-21T12:17:37;15.52;;;7.28;;
12816;SDS011;6473;51.552;6.716;2022-11-21T12:20:12;9.18;;;6.90;;
12816;SDS011;6473;51.552;6.716;2022-11-21T12:22:46;9.70;;;6.65;;
12816;SDS011;6473;51.552;6.716;2022-11-21T12:25:15;11.63;;;6.90;;
12816;SDS011;6473;51.552;6.716;2022-11-21T12:27:45;8.40;;;6.03;;
12816;SDS011;6473;51.552;6.716;2022-11-21T12:33:14;8.98;;;5.63;;
12816;SDS011;6473;51.552;6.716;2022-11-21T12:35:49;8.70;;;5.28;;
12816;SDS011;6473;51.552;6.716;2022-11-21T12:38:29;7.30;;;6.05;;
12816;SDS011;6473;51.552;6.716;2022-11-21T12:41:12;5.95;;;4.72;;
12816;SDS011;6473;51.552;6.716;2022-11-21T12:44:09;6.45;;;5.35;;
12816;SDS011;6473;51.552;6.716;2022-11-21T12:46:46;6.00;;;4.65;;
12816;SDS011;6473;51.552;6.716;2022-11-21T12:49:29;10.95;;;6.80;;
12816;SDS011;6473;51.552;6.716;2022-11-21T12:52:21;10.95;;;5.15;;
12816;SDS011;6473;51.552;6.716;2022-11-21T12:55:18;9.43;;;5.38;;
12816;SDS011;6473;51.552;6.716;2022-11-21T12:58:00;9.63;;;5.90;;
12816;SDS011;6473;51.552;6.716;2022-11-21T13:00:48;7.97;;;5.38;;
12816;SDS011;6473;51.552;6.716;2022-11-21T13:03:27;5.55;;;4.40;;
12816;SDS011;6473;51.552;6.716;2022-11-21T13:06:09;8.60;;;4.97;;
12816;SDS011;6473;51.552;6.716;2022-11-21T13:08:40;9.63;;;6.78;;
12816;SDS011;6473;51.552;6.716;2022-11-21T13:14:13;14.38;;;8.23;;
12816;SDS011;6473;51.552;6.716;2022-11-21T13:16:46;11.85;;;7.60;;
12816;SDS011;6473;51.552;6.716;2022-11-21T13:19:22;15.15;;;8.40;;
12816;SDS011;6473;51.552;6.716;2022-11-21T13:21:56;13.68;;;8.63;;
12816;SDS011;6473;51.552;6.716;2022-11-21T13:27:25;11.88;;;8.00;;
12816;SDS011;6473;51.552;6.716;2022-11-21T13:32:49;10.68;;;7.88;;
12816;SDS011;6473;51.552;6.716;2022-11-21T13:38:22;12.27;;;7.60;;
12816;SDS011;6473;51.552;6.716;2022-11-21T13:40:49;16.13;;;8.32;;
12816;SDS011;6473;51.552;6.716;2022-11-21T13:43:34;13.57;;;7.40;;
12816;SDS011;6473;51.552;6.716;2022-11-21T13:46:01;12.18;;;7.22;;
12816;SDS011;6473;51.552;6.716;2022-11-21T13:48:42;11.25;;;6.82;;
12816;SDS011;6473;51.552;6.716;2022-11-21T13:51:36;11.07;;;6.53;;
12816;SDS011;6473;51.552;6.716;2022-11-21T14:00:34;10.70;;;5.50;;
12816;SDS011;6473;51.552;6.716;2022-11-21T14:03:22;9.00;;;5.43;;
12816;SDS011;6473;51.552;6.716;2022-11-21T14:06:17;8.93;;;4.57;;
12816;SDS011;6473;51.552;6.716;2022-11-21T14:11:54;10.68;;;4.70;;
12816;SDS011;6473;51.552;6.716;2022-11-21T14:14:28;7.50;;;4.47;;
12816;SDS011;6473;51.552;6.716;2022-11-21T14:17:08;7.18;;;4.90;;
12816;SDS011;6473;51.552;6.716;2022-11-21T14:19:49;9.63;;;4.95;;
12816;SDS011;6473;51.552;6.716;2022-11-21T14:22:23;9.43;;;5.47;;
12816;SDS011;6473;51.552;6.716;2022-11-21T14:24:52;6.88;;;4.90;;
12816;SDS011;6473;51.552;6.716;2022-11-21T14:27:23;10.43;;;6.32;;
12816;SDS011;6473;51.552;6.716;2022-11-21T14:29:53;8.77;;;6.35;;
12816;SDS011;6473;51.552;6.716;2022-11-21T14:32:26;10.13;;;5.38;;
12816;SDS011;6473;51.552;6.716;2022-11-21T14:35:07;13.65;;;6.20;;
12816;SDS011;6473;51.552;6.716;2022-11-21T14:37:38;9.02;;;5.82;;
12816;SDS011;6473;51.552;6.716;2022-11-21T14:40:09;9.80;;;5.90;;
12816;SDS011;6473;51.552;6.716;2022-11-21T14:42:38;7.18;;;5.50;;
12816;SDS011;6473;51.552;6.716;2022-11-21T14:45:06;8.07;;;5.50;;
12816;SDS011;6473;51.552;6.716;2022-11-21T14:47:44;7.85;;;5.60;;
12816;SDS011;6473;51.552;6.716;2022-11-21T14:50:20;11.05;;;6.00;;
12816;SDS011;6473;51.552;6.716;2022-11-21T14:52:51;8.53;;;5.77;;
12816;SDS011;6473;51.552;6.716;2022-11-21T14:55:23;11.32;;;6.60;;
12816;SDS011;6473;51.552;6.716;2022-11-21T14:57:54;9.80;;;5.60;;
12816;SDS011;6473;51.552;6.716;2022-11-21T15:00:22;10.20;;;6.03;;
12816;SDS011;6473;51.552;6.716;2022-11-21T15:02:52;9.05;;;5.97;;
12816;SDS011;6473;51.552;6.716;2022-11-21T15:05:21;10.35;;;7.13;;
12816;SDS011;6473;51.552;6.716;2022-11-21T15:07:53;8.50;;;6.37;;
12816;SDS011;6473;51.552;6.716;2022-11-21T15:10:22;8.07;;;6.10;;
12816;SDS011;6473;51.552;6.716;2022-11-21T15:12:52;8.67;;;5.87;;
12816;SDS011;6473;51.552;6.716;2022-11-21T15:15:26;13.63;;;6.97;;
12816;SDS011;6473;51.552;6.716;2022-11-21T15:17:56;14.18;;;6.97;;
12816;SDS011;6473;51.552;6.716;2022-11-21T15:20:24;10.27;;;6.40;;
12816;SDS011;6473;51.552;6.716;2022-11-21T15:22:53;9.48;;;6.75;;
12816;SDS011;6473;51.552;6.716;2022-11-21T15:25:22;11.87;;;7.83;;
12816;SDS011;6473;51.552;6.716;2022-11-21T15:27:51;13.73;;;7.87;;
12816;SDS011;6473;51.552;6.716;2022-11-21T15:30:37;13.67;;;7.87;;
12816;SDS011;6473;51.552;6.716;2022-11-21T15:33:09;14.47;;;7.73;;
12816;SDS011;6473;51.552;6.716;2022-11-21T15:35:50;9.53;;;7.20;;
12816;SDS011;6473;51.552;6.716;2022-11-21T15:38:29;11.33;;;7.20;;
12816;SDS011;6473;51.552;6.716;2022-11-21T15:40:58;10.23;;;6.40;;
12816;SDS011;6473;51.552;6.716;2022-11-21T15:43:39;9.47;;;6.80;;
12816;SDS011;6473;51.552;6.716;2022-11-21T15:46:16;13.27;;;6.70;;